Hurricane Grove, Arkansas
Current Conditions -  °F | °C
As of 6:53 AM on Thursday 23 Oct 2014 (Local Time) from KMWT Reporting Station
Haze Haze  
Wind Chill: 50°   Ceiling: Unl
Heat Index: 50°   Visibility: 6mi
Dew Point: 49°   Wind: 3mph
Humidity: 96%   Direction: 260°W
Pressure: 30.16"   Gusts: NA
Location:  34.537°N, 93.6725°W
Report Text: KMWT 231153Z AUTO 26003KT 6SM BR CLR 10/09 A3016 RMK AO2 SLP214 T01000094 10106 20089 51007
Loading
Personal Weather Stations






























Interactive Weather Map
Tropical Storm Tracking
New forecast layout! Learn more

10-Day Weather Forecast

Advertisements
Track Severe Weather on mobile